createdAt,value
2022-12-06T00:00:04.927Z,20.63
2022-12-06T00:02:58.608Z,19.70
2022-12-06T00:05:46.326Z,20.02
2022-12-06T00:08:32.565Z,20.40
2022-12-06T00:11:22.002Z,19.55
2022-12-06T00:14:08.388Z,19.77
2022-12-06T00:16:54.508Z,20.38
2022-12-06T00:19:40.460Z,19.00
2022-12-06T00:22:26.491Z,18.05
2022-12-06T00:25:12.380Z,16.23
2022-12-06T00:27:58.387Z,16.38
2022-12-06T00:30:44.249Z,15.20
2022-12-06T00:33:30.328Z,13.23
2022-12-06T00:36:18.973Z,13.15
2022-12-06T00:39:07.609Z,13.30
2022-12-06T00:41:56.038Z,14.50
2022-12-06T00:44:41.908Z,13.50
2022-12-06T00:47:27.846Z,13.38
2022-12-06T00:50:13.662Z,13.75
2022-12-06T00:52:59.463Z,15.07
2022-12-06T00:55:46.381Z,16.35
2022-12-06T00:58:32.434Z,14.75
2022-12-06T01:01:21.575Z,15.48
2022-12-06T01:04:09.431Z,14.30
2022-12-06T01:06:55.506Z,13.68
2022-12-06T01:09:42.558Z,14.45
2022-12-06T01:12:28.716Z,13.82
2022-12-06T01:15:14.900Z,12.85
2022-12-06T01:18:00.982Z,13.57
2022-12-06T01:20:47.275Z,12.50
2022-12-06T01:23:33.267Z,12.18
2022-12-06T01:26:23.044Z,11.95
2022-12-06T01:29:10.067Z,13.18
2022-12-06T01:31:56.415Z,13.45
2022-12-06T01:34:43.577Z,13.15
2022-12-06T01:37:29.820Z,13.75
2022-12-06T01:40:15.880Z,15.35
2022-12-06T01:43:01.657Z,14.07
2022-12-06T01:45:47.648Z,15.23
2022-12-06T01:48:34.020Z,14.80
2022-12-06T01:51:20.226Z,14.15
2022-12-06T01:54:09.124Z,14.57
2022-12-06T01:56:56.406Z,12.90
2022-12-06T01:59:42.562Z,13.13
2022-12-06T02:02:28.717Z,13.57
2022-12-06T02:05:15.950Z,12.68
2022-12-06T02:08:01.792Z,13.27
2022-12-06T02:10:48.077Z,14.05
2022-12-06T02:13:34.676Z,13.25
2022-12-06T02:16:36.160Z,13.27
2022-12-06T02:19:44.042Z,12.98
2022-12-06T02:22:40.687Z,13.05
2022-12-06T02:25:53.537Z,13.27
2022-12-06T02:32:13.469Z,13.40
2022-12-06T02:35:19.668Z,11.95
2022-12-06T02:38:13.144Z,12.27
2022-12-06T02:41:01.914Z,11.50
2022-12-06T02:43:53.020Z,12.20
2022-12-06T02:46:41.497Z,12.45
2022-12-06T02:49:31.856Z,12.75
2022-12-06T02:52:19.618Z,12.38
2022-12-06T02:55:08.429Z,13.07
2022-12-06T02:57:56.989Z,13.52
2022-12-06T03:00:50.472Z,14.23
2022-12-06T03:03:45.706Z,13.82
2022-12-06T03:07:02.530Z,13.02
2022-12-06T03:10:19.637Z,16.63
2022-12-06T03:13:19.029Z,16.52
2022-12-06T03:16:19.741Z,14.82
2022-12-06T03:19:09.966Z,15.40
2022-12-06T03:22:04.606Z,16.35
2022-12-06T03:24:51.359Z,16.00
2022-12-06T03:27:37.644Z,15.13
2022-12-06T03:30:23.978Z,14.77
2022-12-06T03:33:10.488Z,14.43
2022-12-06T03:35:57.843Z,14.73
2022-12-06T03:39:11.149Z,13.65
2022-12-06T03:41:58.806Z,12.63
2022-12-06T03:44:45.575Z,13.70
2022-12-06T03:47:40.627Z,12.95
2022-12-06T03:50:31.469Z,11.68
2022-12-06T03:53:18.775Z,11.40
2022-12-06T03:56:04.812Z,14.30
2022-12-06T03:58:50.965Z,13.13
2022-12-06T04:01:38.330Z,12.27
2022-12-06T04:04:25.070Z,12.65
2022-12-06T04:07:12.105Z,10.57
2022-12-06T04:10:03.753Z,11.75
2022-12-06T04:13:13.082Z,11.93
2022-12-06T04:16:01.919Z,11.60
2022-12-06T04:18:48.075Z,11.40
2022-12-06T04:21:33.894Z,11.50
2022-12-06T04:24:19.868Z,10.77
2022-12-06T04:27:24.239Z,10.40
2022-12-06T04:30:29.562Z,11.30
2022-12-06T04:33:34.235Z,9.73
2022-12-06T04:36:38.914Z,10.30
2022-12-06T04:39:25.761Z,9.75
2022-12-06T04:42:29.962Z,10.13
2022-12-06T04:45:16.325Z,10.40
2022-12-06T04:48:02.524Z,11.40
2022-12-06T04:50:51.645Z,12.52
2022-12-06T04:53:37.676Z,12.75
2022-12-06T04:56:23.663Z,12.35
2022-12-06T04:59:09.630Z,12.88
2022-12-06T05:01:56.293Z,12.75
2022-12-06T05:04:42.214Z,12.40
2022-12-06T05:07:28.361Z,12.82
2022-12-06T05:10:14.543Z,12.45
2022-12-06T05:13:01.522Z,12.60
2022-12-06T05:15:59.255Z,12.45
2022-12-06T05:18:45.105Z,12.10
2022-12-06T05:21:31.414Z,11.10
2022-12-06T05:24:17.417Z,10.23
2022-12-06T05:27:03.416Z,11.15
2022-12-06T05:29:49.649Z,10.38
2022-12-06T05:32:35.770Z,10.98
2022-12-06T05:35:21.838Z,11.25
2022-12-06T05:38:07.759Z,12.38
2022-12-06T05:40:53.703Z,12.18
2022-12-06T05:43:39.608Z,13.20
2022-12-06T05:46:26.033Z,11.57
2022-12-06T05:49:12.051Z,11.70
2022-12-06T05:52:03.665Z,11.32
2022-12-06T05:54:50.090Z,11.60
2022-12-06T05:57:36.027Z,10.50
2022-12-06T06:00:22.240Z,11.75
2022-12-06T06:03:08.438Z,12.30
2022-12-06T06:05:58.613Z,10.95
2022-12-06T06:08:44.732Z,12.18
2022-12-06T06:11:30.637Z,11.50
2022-12-06T06:14:16.765Z,12.63
2022-12-06T06:17:02.760Z,11.43
2022-12-06T06:19:51.382Z,11.80
2022-12-06T06:22:38.694Z,10.45
2022-12-06T06:25:25.047Z,13.43
2022-12-06T06:28:11.065Z,12.68
2022-12-06T06:30:57.048Z,14.57
2022-12-06T06:33:43.048Z,14.95
2022-12-06T06:36:28.943Z,15.65
2022-12-06T06:39:14.892Z,13.88
2022-12-06T06:42:01.145Z,15.00
2022-12-06T06:44:46.987Z,15.20
2022-12-06T06:47:33.070Z,15.25
2022-12-06T06:50:19.188Z,15.38
2022-12-06T06:53:05.148Z,16.20
2022-12-06T06:55:51.107Z,16.33
2022-12-06T06:58:37.527Z,16.10
2022-12-06T07:01:24.895Z,16.00
2022-12-06T07:04:10.968Z,19.85
2022-12-06T07:06:57.847Z,18.77
2022-12-06T07:09:44.023Z,20.67
2022-12-06T07:12:30.260Z,20.88
2022-12-06T07:15:16.060Z,21.00
2022-12-06T07:18:02.134Z,22.23
2022-12-06T07:20:48.726Z,22.65
2022-12-06T07:23:35.770Z,23.85
2022-12-06T07:26:23.559Z,23.48
2022-12-06T07:29:09.485Z,24.52
2022-12-06T07:31:55.277Z,24.08
2022-12-06T07:34:41.318Z,22.20
2022-12-06T07:37:27.079Z,23.58
2022-12-06T07:40:14.577Z,23.27
2022-12-06T07:43:19.118Z,24.83
2022-12-06T07:46:11.541Z,24.05
2022-12-06T07:48:57.632Z,28.40
2022-12-06T07:51:45.037Z,26.02
2022-12-06T07:54:31.022Z,28.85
2022-12-06T07:57:16.976Z,27.23
2022-12-06T08:00:04.551Z,26.20
2022-12-06T08:02:57.972Z,28.35
2022-12-06T08:05:43.921Z,27.15
2022-12-06T08:08:31.675Z,31.33
2022-12-06T08:11:17.845Z,26.33
2022-12-06T08:14:05.000Z,26.75
2022-12-06T08:16:52.138Z,24.58
2022-12-06T08:19:38.022Z,22.45
2022-12-06T08:22:23.930Z,25.08
2022-12-06T08:25:10.057Z,25.38
2022-12-06T08:27:56.174Z,31.55
2022-12-06T08:30:42.149Z,26.88
2022-12-06T08:33:28.640Z,22.70
2022-12-06T08:36:17.433Z,26.25
2022-12-06T08:39:03.717Z,23.63
2022-12-06T08:41:55.445Z,27.50
2022-12-06T08:44:41.681Z,25.45
2022-12-06T08:47:27.503Z,24.52
2022-12-06T08:50:13.400Z,22.25
2022-12-06T08:52:59.301Z,21.60
2022-12-06T08:56:00.367Z,21.10
2022-12-06T08:58:48.933Z,21.50
2022-12-06T09:01:38.015Z,20.73
2022-12-06T09:04:24.603Z,22.10
2022-12-06T09:07:12.043Z,19.98
2022-12-06T09:09:58.351Z,21.77
2022-12-06T09:12:44.533Z,22.02
2022-12-06T09:15:30.517Z,19.25
2022-12-06T09:18:16.415Z,18.25
2022-12-06T09:21:10.385Z,17.50
2022-12-06T09:23:57.417Z,21.00
2022-12-06T09:26:44.213Z,21.65
2022-12-06T09:29:30.192Z,20.42
2022-12-06T09:32:15.874Z,22.02
2022-12-06T09:35:02.007Z,21.95
2022-12-06T09:37:48.460Z,22.08
2022-12-06T09:41:04.125Z,22.42
2022-12-06T09:44:24.453Z,22.25
2022-12-06T09:47:34.426Z,20.10
2022-12-06T09:50:26.374Z,19.95
2022-12-06T09:53:51.416Z,19.07
2022-12-06T09:56:44.111Z,18.17
2022-12-06T09:59:53.348Z,19.52
2022-12-06T10:03:02.412Z,20.20
2022-12-06T10:06:00.740Z,16.25
2022-12-06T10:09:08.548Z,23.25
2022-12-06T10:12:03.150Z,20.45
2022-12-06T10:15:07.209Z,21.38
2022-12-06T10:18:03.882Z,21.40
2022-12-06T10:20:59.454Z,21.33
2022-12-06T10:24:00.198Z,19.90
2022-12-06T10:27:31.443Z,20.20
2022-12-06T10:30:17.981Z,22.95
2022-12-06T10:33:22.975Z,23.27
2022-12-06T10:36:10.395Z,22.20
2022-12-06T10:39:03.845Z,21.73
2022-12-06T10:42:02.880Z,20.75
2022-12-06T10:44:56.098Z,19.63
2022-12-06T10:47:43.984Z,21.88
2022-12-06T10:50:35.201Z,21.73
2022-12-06T10:53:23.928Z,23.83
2022-12-06T10:56:19.963Z,23.50
2022-12-06T10:59:28.729Z,22.95
2022-12-06T11:02:28.813Z,22.92
2022-12-06T11:05:22.310Z,22.58
2022-12-06T11:08:43.805Z,23.85
2022-12-06T11:11:33.791Z,26.15
2022-12-06T11:14:27.397Z,21.95
2022-12-06T11:17:19.793Z,21.55
2022-12-06T11:20:25.967Z,20.55
2022-12-06T11:23:17.679Z,20.60
2022-12-06T11:26:22.717Z,18.63
2022-12-06T11:29:14.372Z,18.75
2022-12-06T11:32:03.400Z,17.73
2022-12-06T11:34:52.053Z,18.75
2022-12-06T11:37:44.167Z,17.65
2022-12-06T11:40:36.648Z,18.95
2022-12-06T11:43:26.829Z,19.50
2022-12-06T11:46:14.264Z,19.92
2022-12-06T11:49:11.355Z,19.90
2022-12-06T11:51:59.982Z,21.38
2022-12-06T11:55:08.029Z,20.65
2022-12-06T11:58:26.811Z,18.35
2022-12-06T12:01:16.362Z,18.33
2022-12-06T12:04:23.671Z,16.30
2022-12-06T12:07:09.411Z,13.30
2022-12-06T12:10:04.721Z,12.70
2022-12-06T12:13:09.310Z,14.77
2022-12-06T12:15:58.340Z,16.58
2022-12-06T12:18:59.526Z,16.63
2022-12-06T12:21:49.624Z,17.65
2022-12-06T12:27:58.906Z,18.58
2022-12-06T12:30:56.634Z,19.23
2022-12-06T12:33:42.763Z,17.35
2022-12-06T12:36:29.303Z,18.58
2022-12-06T12:39:27.639Z,21.33
2022-12-06T12:42:31.545Z,21.02
2022-12-06T12:45:19.735Z,22.05
2022-12-06T12:48:25.012Z,22.48
2022-12-06T12:51:20.612Z,25.08
2022-12-06T12:54:23.894Z,21.83
2022-12-06T12:59:58.812Z,23.77
2022-12-06T13:02:47.941Z,24.73
2022-12-06T13:05:40.590Z,23.98
2022-12-06T13:08:34.073Z,22.15
2022-12-06T13:11:20.971Z,21.17
2022-12-06T13:14:07.152Z,27.30
2022-12-06T13:16:56.076Z,25.85
2022-12-06T13:19:51.654Z,26.48
2022-12-06T13:22:45.306Z,25.83
2022-12-06T13:25:31.836Z,25.93
2022-12-06T13:28:22.625Z,24.42
2022-12-06T13:31:16.148Z,21.65
2022-12-06T13:34:54.762Z,22.67
2022-12-06T13:37:58.334Z,21.15
2022-12-06T13:40:54.126Z,24.50
2022-12-06T13:43:49.786Z,28.17
2022-12-06T13:46:36.026Z,24.85
2022-12-06T13:49:25.826Z,25.65
2022-12-06T13:52:40.943Z,28.13
2022-12-06T13:55:28.458Z,28.80
2022-12-06T13:58:18.597Z,30.65
2022-12-06T14:01:43.794Z,29.02
2022-12-06T14:07:33.650Z,30.77
2022-12-06T14:10:19.770Z,31.02
2022-12-06T14:13:05.984Z,31.83
2022-12-06T14:15:52.619Z,32.63
2022-12-06T14:18:40.815Z,29.08
2022-12-06T14:21:30.867Z,27.25
2022-12-06T14:24:40.526Z,31.30
2022-12-06T14:27:29.257Z,29.48
2022-12-06T14:30:26.489Z,33.35
2022-12-06T14:33:19.610Z,32.22
2022-12-06T14:36:06.308Z,29.48
2022-12-06T14:39:16.267Z,26.10
2022-12-06T14:42:22.730Z,26.40
2022-12-06T14:45:16.141Z,27.27
2022-12-06T14:48:04.086Z,23.08
2022-12-06T14:51:01.347Z,23.30
2022-12-06T14:53:47.562Z,24.48
2022-12-06T14:56:35.803Z,23.88
2022-12-06T14:59:46.135Z,22.92
2022-12-06T15:02:31.407Z,24.08
2022-12-06T15:05:38.934Z,26.30
2022-12-06T15:08:28.370Z,27.95
2022-12-06T15:11:34.394Z,28.95
2022-12-06T15:14:25.203Z,28.55
2022-12-06T15:17:11.437Z,33.25
2022-12-06T15:19:57.568Z,33.40
2022-12-06T15:22:46.398Z,33.97
2022-12-06T15:25:32.458Z,34.90
2022-12-06T15:28:20.005Z,34.35
2022-12-06T15:31:12.081Z,36.83
2022-12-06T15:33:58.349Z,34.85
2022-12-06T15:36:44.139Z,48.08
2022-12-06T15:39:33.191Z,51.97
2022-12-06T15:42:20.938Z,56.58
2022-12-06T15:45:14.591Z,73.28
2022-12-06T15:48:00.526Z,74.85
2022-12-06T15:50:47.565Z,97.43
2022-12-06T15:53:33.881Z,104.95
2022-12-06T15:56:22.682Z,101.97
2022-12-06T15:59:08.861Z,97.03
2022-12-06T16:01:54.903Z,69.40
2022-12-06T16:04:41.735Z,84.50
2022-12-06T16:07:27.577Z,78.90
2022-12-06T16:10:17.817Z,70.40
2022-12-06T16:13:24.888Z,61.00
2022-12-06T16:16:12.013Z,57.83
2022-12-06T16:18:59.014Z,52.47
2022-12-06T16:21:55.250Z,51.78
2022-12-06T16:24:42.776Z,47.30
2022-12-06T16:27:30.892Z,52.58
2022-12-06T16:30:18.523Z,54.78
2022-12-06T16:33:07.665Z,50.00
2022-12-06T16:35:59.505Z,52.17
2022-12-06T16:38:46.116Z,51.60
2022-12-06T16:41:34.102Z,55.85
2022-12-06T16:44:20.438Z,52.17
2022-12-06T16:47:07.819Z,54.92
2022-12-06T16:49:53.821Z,47.88
2022-12-06T16:52:39.751Z,45.20
2022-12-06T16:55:25.665Z,44.58
2022-12-06T16:58:11.714Z,44.25
2022-12-06T17:01:00.029Z,41.08
2022-12-06T17:03:49.511Z,39.13
2022-12-06T17:06:35.805Z,33.67
2022-12-06T17:09:21.764Z,32.85
2022-12-06T17:12:13.145Z,21.73
2022-12-06T17:15:00.198Z,20.13
2022-12-06T17:17:47.161Z,19.13
2022-12-06T17:20:33.285Z,18.67
2022-12-06T17:23:19.387Z,17.48
2022-12-06T17:26:05.639Z,17.98
2022-12-06T17:28:51.955Z,17.35
2022-12-06T17:31:38.787Z,17.83
2022-12-06T17:34:25.969Z,15.77
2022-12-06T17:37:12.203Z,16.92
2022-12-06T17:39:58.453Z,19.08
2022-12-06T17:42:59.361Z,16.23
2022-12-06T17:45:45.481Z,17.77
2022-12-06T17:48:35.979Z,18.35
2022-12-06T17:51:24.808Z,17.55
2022-12-06T17:54:11.359Z,15.77
2022-12-06T17:56:57.309Z,16.85
2022-12-06T17:59:48.541Z,16.85
2022-12-06T18:02:34.601Z,17.17
2022-12-06T18:05:20.538Z,20.52
2022-12-06T18:08:06.451Z,20.58
2022-12-06T18:10:59.504Z,21.05
2022-12-06T18:13:46.137Z,19.17
2022-12-06T18:16:39.266Z,17.95
2022-12-06T18:19:25.429Z,18.60
2022-12-06T18:22:11.520Z,18.20
2022-12-06T18:24:57.781Z,22.98
2022-12-06T18:27:44.201Z,20.05
2022-12-06T18:30:30.333Z,16.67
2022-12-06T18:33:20.720Z,18.40
2022-12-06T18:36:08.874Z,20.10
2022-12-06T18:39:02.647Z,22.70
2022-12-06T18:41:49.120Z,23.55
2022-12-06T18:44:35.012Z,21.95
2022-12-06T18:47:25.917Z,29.38
2022-12-06T18:50:12.005Z,23.15
2022-12-06T18:52:58.118Z,25.20
2022-12-06T18:55:44.393Z,22.90
2022-12-06T18:58:31.435Z,23.02
2022-12-06T19:01:18.882Z,24.73
2022-12-06T19:04:06.691Z,24.17
2022-12-06T19:06:53.055Z,24.65
2022-12-06T19:09:39.250Z,24.52
2022-12-06T19:12:25.094Z,26.65
2022-12-06T19:15:11.441Z,25.20
2022-12-06T19:17:57.664Z,29.55
2022-12-06T19:20:43.811Z,26.50
2022-12-06T19:23:32.999Z,26.60
2022-12-06T19:26:19.335Z,30.77
2022-12-06T19:29:05.960Z,30.13
2022-12-06T19:31:52.575Z,30.48
2022-12-06T19:34:38.525Z,26.52
2022-12-06T19:37:25.087Z,29.33
2022-12-06T19:40:11.582Z,26.17
2022-12-06T19:43:24.158Z,26.98
2022-12-06T19:46:12.251Z,27.42
2022-12-06T19:49:00.719Z,27.27
2022-12-06T19:51:47.727Z,27.42
2022-12-06T19:54:37.308Z,29.13
2022-12-06T19:57:23.382Z,31.58
2022-12-06T20:00:10.867Z,32.25
2022-12-06T20:02:58.063Z,32.13
2022-12-06T20:05:44.197Z,32.28
2022-12-06T20:08:30.439Z,30.80
2022-12-06T20:11:38.165Z,36.03
2022-12-06T20:14:24.541Z,35.65
2022-12-06T20:17:14.138Z,35.17
2022-12-06T20:20:02.111Z,36.60
2022-12-06T20:22:48.391Z,38.25
2022-12-06T20:25:37.237Z,38.25
2022-12-06T20:28:23.371Z,33.40
2022-12-06T20:31:24.011Z,34.17
2022-12-06T20:34:14.988Z,34.28
2022-12-06T20:37:03.687Z,31.90
2022-12-06T20:39:49.636Z,30.67
2022-12-06T20:42:35.539Z,30.30
2022-12-06T20:45:21.431Z,29.55
2022-12-06T20:48:07.508Z,27.85
2022-12-06T20:50:53.554Z,30.58
2022-12-06T20:53:40.148Z,33.35
2022-12-06T20:56:28.835Z,33.25
2022-12-06T20:59:14.945Z,35.47
2022-12-06T21:02:01.002Z,30.90
2022-12-06T21:04:47.228Z,31.13
2022-12-06T21:07:33.230Z,30.50
2022-12-06T21:10:19.466Z,30.88
2022-12-06T21:13:06.528Z,38.88
2022-12-06T21:16:07.514Z,38.38
2022-12-06T21:19:05.448Z,37.92
2022-12-06T21:21:58.586Z,36.90
2022-12-06T21:24:44.670Z,36.30
2022-12-06T21:27:30.522Z,33.05
2022-12-06T21:30:16.858Z,32.88
2022-12-06T21:33:05.169Z,32.72
2022-12-06T21:35:53.332Z,31.92
2022-12-06T21:38:39.498Z,30.52
2022-12-06T21:41:25.771Z,30.77
2022-12-06T21:44:12.009Z,29.27
2022-12-06T21:46:58.197Z,30.73
2022-12-06T21:49:44.375Z,28.83
2022-12-06T21:52:30.403Z,25.58
2022-12-06T21:55:16.432Z,27.15
2022-12-06T21:58:02.543Z,24.80
2022-12-06T22:00:48.480Z,24.25
2022-12-06T22:03:34.519Z,22.63
2022-12-06T22:06:21.033Z,27.08
2022-12-06T22:09:06.981Z,25.38
2022-12-06T22:11:52.891Z,26.98
2022-12-06T22:14:38.923Z,25.38
2022-12-06T22:17:25.136Z,26.17
2022-12-06T22:20:11.398Z,26.17
2022-12-06T22:22:57.254Z,27.65
2022-12-06T22:25:43.139Z,33.83
2022-12-06T22:28:29.048Z,31.23
2022-12-06T22:31:19.966Z,30.25
2022-12-06T22:34:06.032Z,28.92
2022-12-06T22:36:51.805Z,28.17
2022-12-06T22:39:37.621Z,28.27
2022-12-06T22:42:23.520Z,27.02
2022-12-06T22:45:09.785Z,28.23
2022-12-06T22:47:55.572Z,30.30
2022-12-06T22:50:41.563Z,30.92
2022-12-06T22:53:27.545Z,29.40
2022-12-06T22:56:14.497Z,31.33
2022-12-06T22:59:01.473Z,28.33
2022-12-06T23:01:47.544Z,30.80
2022-12-06T23:04:33.559Z,29.83
2022-12-06T23:07:19.627Z,27.05
2022-12-06T23:10:06.304Z,27.67
2022-12-06T23:12:52.468Z,28.23
2022-12-06T23:15:38.348Z,26.35
2022-12-06T23:18:24.956Z,26.23
2022-12-06T23:21:16.446Z,26.92
2022-12-06T23:24:05.564Z,27.77
2022-12-06T23:26:57.744Z,27.00
2022-12-06T23:29:44.081Z,25.95
2022-12-06T23:32:30.115Z,27.23
2022-12-06T23:35:16.562Z,29.05
2022-12-06T23:38:02.368Z,28.92
2022-12-06T23:40:48.332Z,29.15
2022-12-06T23:43:35.261Z,28.02
2022-12-06T23:46:23.162Z,28.67
2022-12-06T23:49:16.409Z,27.70
2022-12-06T23:52:02.602Z,28.63
2022-12-06T23:54:48.801Z,30.02
2022-12-06T23:57:34.730Z,30.08
